Time;durP1;ratioP1;P1;durP2;ratioP2;P2;SDS_P1;SDS_P2;PMS_P1;PMS_P2;Temp;Humidity;BMP_temperature;BMP_pressure;BME280_temperature;BME280_humidity;BME280_pressure;Samples;Min_cycle;Max_cycle;Signal;HPM_P1;HPM_P2
2023/05/10 00:02:21;;;;;;;;;;;12.70;99.90;;;;;;8206393;29;19925;-84
2023/05/10 00:06:22;;;;;;;;;;;12.70;99.90;;;;;;8188678;29;19962;-84
2023/05/10 00:10:22;;;;;;;;;;;12.70;99.90;;;;;;8207701;29;19945;-84
2023/05/10 00:14:29;;;;;;;;;;;12.60;99.90;;;;;;8212476;28;19914;-85
2023/05/10 00:18:30;;;;;;;;;;;12.70;99.90;;;;;;8204600;29;19964;-85
2023/05/10 00:22:42;;;;;;;;;;;12.60;99.90;;;;;;8212146;29;19911;-89
2023/05/10 00:26:43;;;;;;;;;;;12.70;99.90;;;;;;8199948;29;19993;-84
2023/05/10 00:30:43;;;;;;;;;;;12.70;99.90;;;;;;8210542;28;19914;-84
2023/05/10 00:34:44;;;;;;;;;;;12.60;99.90;;;;;;8206703;28;19923;-84
2023/05/10 00:38:47;;;;;;;;;;;12.50;99.90;;;;;;8195608;29;19911;-85
2023/05/10 00:47:24;;;;;;;;;;;12.60;99.90;;;;;;8204967;28;20010;-87
2023/05/10 00:51:28;;;;;;;;;;;12.50;99.90;;;;;;8194115;28;20005;-84
2023/05/10 00:55:28;;;;;;;;;;;12.50;99.90;;;;;;8204498;29;19950;-87
2023/05/10 00:59:29;;;;;;;;;;;12.50;99.90;;;;;;8202822;29;20385;-85
2023/05/10 01:03:30;;;;;;;;;;;12.50;99.90;;;;;;8202381;28;19961;-88
2023/05/10 01:07:31;;;;;;;;;;;12.30;99.90;;;;;;8185414;29;19911;-84
2023/05/10 01:11:41;;;;;;;;;;;12.40;99.90;;;;;;8198860;29;19934;-85
2023/05/10 01:15:46;;;;;;;;;;;12.30;99.90;;;;;;8215185;28;19918;-85
2023/05/10 01:19:49;;;;;;;;;;;12.30;99.90;;;;;;8208436;28;19911;-85
2023/05/10 01:24:08;;;;;;;;;;;12.40;99.90;;;;;;8199997;29;19910;-87
2023/05/10 01:28:29;;;;;;;;;;;12.30;99.90;;;;;;8200626;29;19918;-83
2023/05/10 01:32:39;;;;;;;;;;;12.30;99.90;;;;;;8190933;28;19969;-86
2023/05/10 01:37:06;;;;;;;;;;;12.30;99.90;;;;;;8204348;29;19922;-85
2023/05/10 01:41:14;;;;;;;;;;;12.40;99.90;;;;;;8202727;29;19974;-85
2023/05/10 01:45:30;;;;;;;;;;;12.40;99.90;;;;;;8206985;29;19916;-84
2023/05/10 01:49:32;;;;;;;;;;;12.20;99.90;;;;;;8199197;28;19966;-85
2023/05/10 01:53:35;;;;;;;;;;;12.30;99.90;;;;;;8195644;28;19911;-85
2023/05/10 01:57:40;;;;;;;;;;;12.40;99.90;;;;;;8199390;29;20514;-84
2023/05/10 02:01:45;;;;;;;;;;;12.40;99.90;;;;;;8203034;29;19954;-90
2023/05/10 02:05:48;;;;;;;;;;;12.30;99.90;;;;;;8185964;29;19918;-84
2023/05/10 02:09:50;;;;;;;;;;;12.40;99.90;;;;;;8197855;29;19918;-86
2023/05/10 02:13:58;;;;;;;;;;;12.60;99.90;;;;;;8201814;29;19917;-88
2023/05/10 02:18:02;;;;;;;;;;;12.50;99.90;;;;;;8201500;28;19915;-87
2023/05/10 02:22:10;;;;;;;;;;;12.50;99.90;;;;;;8197545;28;19915;-86
2023/05/10 02:26:13;;;;;;;;;;;12.40;99.90;;;;;;8192758;29;19997;-84
2023/05/10 02:30:16;;;;;;;;;;;12.30;99.90;;;;;;8190537;29;19918;-87
2023/05/10 02:34:17;;;;;;;;;;;12.30;99.90;;;;;;8205481;29;20264;-88
2023/05/10 02:38:20;;;;;;;;;;;12.40;99.90;;;;;;8202858;29;19938;-84
2023/05/10 02:42:23;;;;;;;;;;;12.40;99.90;;;;;;8198141;29;19911;-84
2023/05/10 02:46:24;;;;;;;;;;;12.40;99.90;;;;;;8203242;29;19918;-85
2023/05/10 02:50:29;;;;;;;;;;;12.40;99.90;;;;;;8193124;28;19919;-85
2023/05/10 02:54:35;;;;;;;;;;;12.30;99.90;;;;;;8195302;29;20391;-84
2023/05/10 02:58:35;;;;;;;;;;;12.30;99.90;;;;;;8205328;29;20315;-86
2023/05/10 03:02:36;;;;;;;;;;;12.30;99.90;;;;;;8201770;29;19914;-87
2023/05/10 03:06:43;;;;;;;;;;;12.30;99.90;;;;;;8196979;29;19915;-89
2023/05/10 03:11:09;;;;;;;;;;;12.30;99.90;;;;;;8201212;29;19918;-84
2023/05/10 03:15:16;;;;;;;;;;;12.30;99.90;;;;;;8206712;28;20346;-86
2023/05/10 03:19:31;;;;;;;;;;;12.20;99.90;;;;;;8192256;29;19914;-84
2023/05/10 03:23:54;;;;;;;;;;;12.10;99.90;;;;;;8195096;29;19911;-85
2023/05/10 03:27:56;;;;;;;;;;;12.00;99.90;;;;;;8202122;28;19911;-85
2023/05/10 03:32:00;;;;;;;;;;;12.00;99.90;;;;;;8203764;28;20381;-84
2023/05/10 03:36:04;;;;;;;;;;;12.10;99.90;;;;;;8194865;29;20021;-85
2023/05/10 03:40:15;;;;;;;;;;;12.10;99.90;;;;;;8206216;28;20302;-87
2023/05/10 03:44:21;;;;;;;;;;;12.00;99.90;;;;;;8212377;28;19918;-86
2023/05/10 03:48:25;;;;;;;;;;;11.90;99.90;;;;;;8206771;28;19964;-84
2023/05/10 03:52:26;;;;;;;;;;;11.90;99.90;;;;;;8205705;28;19934;-84
2023/05/10 03:56:26;;;;;;;;;;;11.70;99.90;;;;;;8182555;29;19937;-84
2023/05/10 04:00:43;;;;;;;;;;;11.60;99.90;;;;;;8203367;28;19914;-86
2023/05/10 04:09:25;;;;;;;;;;;11.10;99.90;;;;;;8212776;28;19915;-87
2023/05/10 04:13:40;;;;;;;;;;;10.70;99.90;;;;;;8213794;28;20584;-84
2023/05/10 04:17:40;;;;;;;;;;;10.60;99.90;;;;;;8212846;28;19925;-86
2023/05/10 04:21:41;;;;;;;;;;;10.60;99.90;;;;;;8203453;28;20020;-87
2023/05/10 04:25:42;;;;;;;;;;;10.80;99.90;;;;;;8207071;29;20423;-85
2023/05/10 04:29:46;;;;;;;;;;;10.90;99.90;;;;;;8207138;28;19921;-85
2023/05/10 04:33:49;;;;;;;;;;;11.10;99.90;;;;;;8213550;28;19945;-85
2023/05/10 04:37:59;;;;;;;;;;;11.30;99.90;;;;;;8203891;28;19914;-85
2023/05/10 04:42:09;;;;;;;;;;;11.50;99.90;;;;;;8193038;28;19914;-87
2023/05/10 04:46:09;;;;;;;;;;;11.60;99.90;;;;;;8196387;28;19915;-88
2023/05/10 04:50:28;;;;;;;;;;;11.60;99.90;;;;;;8192428;28;19918;-86
2023/05/10 04:54:29;;;;;;;;;;;11.70;99.90;;;;;;8196967;28;19915;-85
2023/05/10 04:58:35;;;;;;;;;;;11.70;99.90;;;;;;8198375;28;19911;-85
2023/05/10 05:02:36;;;;;;;;;;;11.80;99.90;;;;;;8167423;29;19915;-85
2023/05/10 05:06:36;;;;;;;;;;;11.90;99.90;;;;;;8189423;29;20537;-85
2023/05/10 05:11:00;;;;;;;;;;;11.90;99.90;;;;;;8200170;29;19914;-88
2023/05/10 05:15:04;;;;;;;;;;;12.10;99.90;;;;;;8179440;29;19914;-85
2023/05/10 05:19:07;;;;;;;;;;;12.30;99.90;;;;;;8201810;29;19918;-85
2023/05/10 05:23:20;;;;;;;;;;;12.50;99.90;;;;;;8201559;29;19962;-85
2023/05/10 05:27:26;;;;;;;;;;;12.70;99.90;;;;;;8195661;29;19911;-86
2023/05/10 05:31:29;;;;;;;;;;;12.80;99.90;;;;;;8177800;29;19945;-85
2023/05/10 05:35:33;;;;;;;;;;;12.90;99.90;;;;;;8197485;29;20414;-85
2023/05/10 05:39:37;;;;;;;;;;;13.00;99.90;;;;;;8197488;29;19911;-85
2023/05/10 05:43:49;;;;;;;;;;;12.80;99.90;;;;;;8194142;29;19914;-87
2023/05/10 05:47:50;;;;;;;;;;;12.90;99.90;;;;;;8202026;28;19910;-86
2023/05/10 05:51:50;;;;;;;;;;;12.80;99.90;;;;;;8191505;28;19919;-86
2023/05/10 05:55:52;;;;;;;;;;;12.90;99.90;;;;;;8196439;29;20320;-85
2023/05/10 05:59:56;;;;;;;;;;;13.10;99.90;;;;;;8199628;29;20335;-85
2023/05/10 06:03:59;;;;;;;;;;;13.00;99.90;;;;;;8186433;29;20592;-88
2023/05/10 06:08:06;;;;;;;;;;;13.20;99.90;;;;;;8193326;29;19910;-85
2023/05/10 06:12:07;;;;;;;;;;;13.40;99.90;;;;;;8196850;29;19965;-85
2023/05/10 06:16:13;;;;;;;;;;;13.50;99.90;;;;;;8183943;28;20495;-85
2023/05/10 06:20:16;;;;;;;;;;;14.00;99.90;;;;;;8191084;29;19910;-85
2023/05/10 06:24:41;;;;;;;;;;;14.00;99.90;;;;;;8197613;29;19922;-86
2023/05/10 06:28:44;;;;;;;;;;;14.10;99.90;;;;;;8195238;29;20009;-85
2023/05/10 06:32:45;;;;;;;;;;;14.30;99.90;;;;;;8182508;28;20351;-85
2023/05/10 06:36:46;;;;;;;;;;;14.30;99.90;;;;;;8189097;29;19925;-85
2023/05/10 06:40:52;;;;;;;;;;;14.40;99.90;;;;;;8200032;28;19957;-85
2023/05/10 06:44:59;;;;;;;;;;;14.50;99.90;;;;;;8190424;29;19914;-85
2023/05/10 06:49:11;;;;;;;;;;;14.70;99.90;;;;;;8197485;29;19910;-85
2023/05/10 06:53:11;;;;;;;;;;;14.80;99.90;;;;;;8188550;29;20478;-86
2023/05/10 06:57:12;;;;;;;;;;;14.90;99.90;;;;;;8191190;29;19958;-85
2023/05/10 07:01:16;;;;;;;;;;;15.50;99.90;;;;;;8188888;29;19910;-85
2023/05/10 07:05:16;;;;;;;;;;;15.90;99.90;;;;;;8204294;29;20354;-85
2023/05/10 07:09:24;;;;;;;;;;;16.00;99.90;;;;;;8196516;29;19910;-85
2023/05/10 07:13:24;;;;;;;;;;;16.00;99.90;;;;;;8197817;29;19911;-85
2023/05/10 07:17:27;;;;;;;;;;;16.20;99.90;;;;;;8182430;29;19922;-84
2023/05/10 07:21:28;;;;;;;;;;;16.50;99.90;;;;;;8202314;29;19911;-85
2023/05/10 07:25:29;;;;;;;;;;;16.50;99.90;;;;;;8203364;29;19918;-84
2023/05/10 07:29:38;;;;;;;;;;;16.50;99.90;;;;;;8204362;29;19910;-84
2023/05/10 07:33:38;;;;;;;;;;;16.20;99.90;;;;;;8209111;29;20401;-85
2023/05/10 07:37:41;;;;;;;;;;;16.30;99.90;;;;;;8200073;29;19914;-85
2023/05/10 07:41:42;;;;;;;;;;;16.10;99.90;;;;;;8204152;28;19961;-85
2023/05/10 07:45:43;;;;;;;;;;;15.90;99.90;;;;;;8200132;28;19910;-86
2023/05/10 07:49:43;;;;;;;;;;;15.70;99.90;;;;;;8196768;29;19929;-84
2023/05/10 07:53:44;;;;;;;;;;;15.50;99.90;;;;;;8193608;29;19919;-85
2023/05/10 07:57:44;;;;;;;;;;;15.70;99.90;;;;;;8194697;29;19915;-84
2023/05/10 08:01:45;;;;;;;;;;;16.00;99.90;;;;;;8199161;29;19917;-85
2023/05/10 08:05:46;;;;;;;;;;;15.90;99.90;;;;;;8195823;28;20506;-84
2023/05/10 08:09:46;;;;;;;;;;;16.20;99.90;;;;;;8207475;29;19969;-84
2023/05/10 08:13:50;;;;;;;;;;;16.30;99.90;;;;;;8193314;29;19911;-86
2023/05/10 08:17:57;;;;;;;;;;;16.20;99.90;;;;;;8198464;29;20029;-84
2023/05/10 08:21:57;;;;;;;;;;;16.50;99.90;;;;;;8203201;29;19918;-85
2023/05/10 08:25:58;;;;;;;;;;;16.80;99.90;;;;;;8203509;29;19910;-85
2023/05/10 08:29:59;;;;;;;;;;;17.00;99.90;;;;;;8201191;28;19911;-85
2023/05/10 08:34:00;;;;;;;;;;;17.00;99.90;;;;;;8208063;28;19961;-85
2023/05/10 08:38:00;;;;;;;;;;;17.30;99.90;;;;;;8198677;28;19914;-84
2023/05/10 08:42:05;;;;;;;;;;;17.60;99.90;;;;;;8199233;29;19910;-87
2023/05/10 08:46:07;;;;;;;;;;;17.30;99.90;;;;;;8195072;29;20427;-85
2023/05/10 08:50:08;;;;;;;;;;;17.30;99.90;;;;;;8191098;29;19965;-85
2023/05/10 08:54:09;;;;;;;;;;;17.40;99.90;;;;;;8197675;29;19917;-86
2023/05/10 08:58:09;;;;;;;;;;;17.10;99.90;;;;;;8192550;29;19915;-86
2023/05/10 09:02:11;;;;;;;;;;;17.30;99.90;;;;;;8191844;29;19911;-84
2023/05/10 09:06:13;;;;;;;;;;;17.50;99.90;;;;;;8192283;29;19994;-84
2023/05/10 09:10:17;;;;;;;;;;;17.60;99.90;;;;;;8199320;29;19922;-84
2023/05/10 09:14:18;;;;;;;;;;;17.60;99.90;;;;;;8185502;29;19918;-85
2023/05/10 09:18:31;;;;;;;;;;;17.70;99.90;;;;;;8198134;29;19911;-86
2023/05/10 09:22:31;;;;;;;;;;;17.70;99.90;;;;;;8201445;28;20050;-84
2023/05/10 09:26:33;;;;;;;;;;;17.70;99.90;;;;;;8198832;29;19910;-85
2023/05/10 09:30:39;;;;;;;;;;;17.50;99.90;;;;;;8198665;29;19915;-85
2023/05/10 09:34:42;;;;;;;;;;;17.30;99.90;;;;;;8183049;28;19922;-84
2023/05/10 09:38:51;;;;;;;;;;;17.00;99.90;;;;;;8185842;29;19953;-85
2023/05/10 09:42:59;;;;;;;;;;;16.70;99.90;;;;;;8196097;29;20284;-84
2023/05/10 09:47:02;;;;;;;;;;;16.50;99.90;;;;;;8197635;29;19917;-84
2023/05/10 09:51:03;;;;;;;;;;;16.20;99.90;;;;;;8189425;29;19919;-84
2023/05/10 09:55:04;;;;;;;;;;;15.90;99.90;;;;;;8197389;29;19922;-85
2023/05/10 09:59:05;;;;;;;;;;;15.90;99.90;;;;;;8196689;29;19911;-85
2023/05/10 10:03:06;;;;;;;;;;;16.60;99.90;;;;;;8192482;29;19911;-86
2023/05/10 10:07:07;;;;;;;;;;;17.50;99.90;;;;;;8194329;29;19982;-86
2023/05/10 10:11:07;;;;;;;;;;;18.10;99.90;;;;;;8198704;29;19965;-85
2023/05/10 10:15:09;;;;;;;;;;;17.70;99.90;;;;;;8202176;29;19921;-85
2023/05/10 10:19:12;;;;;;;;;;;17.50;99.90;;;;;;8199691;29;20435;-85
2023/05/10 10:23:16;;;;;;;;;;;16.90;99.90;;;;;;8188423;29;19911;-85
2023/05/10 10:27:36;;;;;;;;;;;16.30;99.90;;;;;;8188238;29;19915;-83
2023/05/10 10:31:40;;;;;;;;;;;14.60;99.90;;;;;;8198931;29;19942;-83
2023/05/10 10:35:41;;;;;;;;;;;13.10;99.90;;;;;;8202408;29;19914;-83
2023/05/10 10:39:41;;;;;;;;;;;12.60;99.90;;;;;;8191111;29;20323;-83
2023/05/10 10:43:42;;;;;;;;;;;12.50;99.90;;;;;;8195852;29;20013;-84
2023/05/10 10:47:43;;;;;;;;;;;12.80;99.90;;;;;;8194787;29;20440;-83
2023/05/10 10:52:04;;;;;;;;;;;12.80;99.90;;;;;;8198642;28;19922;-84
2023/05/10 10:56:15;;;;;;;;;;;12.70;99.90;;;;;;8193665;29;19914;-83
2023/05/10 11:00:21;;;;;;;;;;;12.60;99.90;;;;;;8195697;29;19911;-84
2023/05/10 11:04:24;;;;;;;;;;;12.70;99.90;;;;;;8182573;29;19911;-85
2023/05/10 11:08:43;;;;;;;;;;;12.80;99.90;;;;;;8190800;29;19934;-86
2023/05/10 11:13:00;;;;;;;;;;;12.70;99.90;;;;;;8198840;29;19915;-84
2023/05/10 11:17:01;;;;;;;;;;;12.70;99.90;;;;;;8190156;29;19915;-84
2023/05/10 11:21:04;;;;;;;;;;;12.70;99.90;;;;;;8193112;29;19982;-84
2023/05/10 11:25:05;;;;;;;;;;;12.80;99.90;;;;;;8196427;29;19917;-86
2023/05/10 11:29:12;;;;;;;;;;;12.90;99.90;;;;;;8189007;29;19911;-84
2023/05/10 11:33:19;;;;;;;;;;;13.20;99.90;;;;;;8186790;29;19918;-85
2023/05/10 11:37:19;;;;;;;;;;;13.40;99.90;;;;;;8178126;29;20304;-84
2023/05/10 11:41:36;;;;;;;;;;;13.60;99.90;;;;;;8200376;29;19958;-85
2023/05/10 11:45:40;;;;;;;;;;;13.80;99.90;;;;;;8198850;29;20368;-85
2023/05/10 11:49:46;;;;;;;;;;;13.70;99.90;;;;;;8193065;28;19915;-85
2023/05/10 11:53:46;;;;;;;;;;;13.70;99.90;;;;;;8197953;29;19911;-86
2023/05/10 11:57:51;;;;;;;;;;;14.00;99.90;;;;;;8202626;29;19922;-84
2023/05/10 12:01:51;;;;;;;;;;;13.90;99.90;;;;;;8206846;28;19911;-86
2023/05/10 12:05:56;;;;;;;;;;;13.60;99.90;;;;;;8194546;28;19918;-85
2023/05/10 12:10:08;;;;;;;;;;;13.40;99.90;;;;;;8190428;29;19921;-85
2023/05/10 12:14:10;;;;;;;;;;;13.30;99.90;;;;;;8196791;29;19914;-84
2023/05/10 12:18:11;;;;;;;;;;;13.30;99.90;;;;;;8206710;28;19948;-85
2023/05/10 12:22:12;;;;;;;;;;;13.30;99.90;;;;;;8190883;29;19917;-85
2023/05/10 12:26:15;;;;;;;;;;;13.50;99.90;;;;;;8213664;28;19918;-85
2023/05/10 12:30:25;;;;;;;;;;;13.60;99.90;;;;;;8203564;29;19910;-84
2023/05/10 12:34:26;;;;;;;;;;;13.70;99.90;;;;;;8205837;28;19914;-85
2023/05/10 12:38:32;;;;;;;;;;;13.60;99.90;;;;;;8201396;29;19920;-86
2023/05/10 12:42:32;;;;;;;;;;;13.60;99.90;;;;;;8206451;29;19911;-86
2023/05/10 12:46:33;;;;;;;;;;;13.40;99.90;;;;;;8201421;29;19917;-86
2023/05/10 12:50:36;;;;;;;;;;;13.20;99.90;;;;;;8199081;28;19922;-86
2023/05/10 12:54:37;;;;;;;;;;;13.20;99.90;;;;;;8207763;29;19914;-85
2023/05/10 12:58:38;;;;;;;;;;;13.40;99.90;;;;;;8200443;29;20045;-85
2023/05/10 13:02:41;;;;;;;;;;;13.40;99.90;;;;;;8189906;29;19911;-86
2023/05/10 13:06:42;;;;;;;;;;;13.70;99.90;;;;;;8197559;29;20453;-83
2023/05/10 13:10:43;;;;;;;;;;;13.70;99.90;;;;;;8193090;29;19911;-83
2023/05/10 13:14:43;;;;;;;;;;;13.80;99.90;;;;;;8185842;29;20527;-83
2023/05/10 13:18:46;;;;;;;;;;;13.70;99.90;;;;;;8195197;28;19966;-83
2023/05/10 13:23:07;;;;;;;;;;;13.80;99.90;;;;;;8184343;29;19914;-83
2023/05/10 13:27:13;;;;;;;;;;;14.00;99.90;;;;;;8195307;29;19910;-83
2023/05/10 13:31:17;;;;;;;;;;;14.20;99.90;;;;;;8180231;29;19910;-83
2023/05/10 13:35:27;;;;;;;;;;;14.50;99.90;;;;;;8200052;29;19950;-83
2023/05/10 13:39:38;;;;;;;;;;;14.90;99.90;;;;;;8191195;29;19954;-84
2023/05/10 13:43:44;;;;;;;;;;;15.30;99.90;;;;;;8191507;29;19911;-84
2023/05/10 13:47:51;;;;;;;;;;;15.80;99.90;;;;;;8193936;29;19950;-83
2023/05/10 13:51:52;;;;;;;;;;;15.60;99.90;;;;;;8194302;28;19919;-83
2023/05/10 13:56:34;;;;;;;;;;;14.90;99.90;;;;;;8196312;29;19914;-83
2023/05/10 14:00:42;;;;;;;;;;;14.00;99.90;;;;;;8199695;29;19997;-83
2023/05/10 14:04:45;;;;;;;;;;;13.40;99.90;;;;;;8195765;29;19915;-83
2023/05/10 14:08:56;;;;;;;;;;;13.00;99.90;;;;;;8192409;29;20398;-83
2023/05/10 14:12:57;;;;;;;;;;;12.80;99.90;;;;;;8180665;29;19914;-83
2023/05/10 14:17:06;;;;;;;;;;;13.10;99.90;;;;;;8188113;29;19918;-83
2023/05/10 14:21:30;;;;;;;;;;;13.40;99.90;;;;;;8183504;29;19910;-83
2023/05/10 14:25:31;;;;;;;;;;;13.70;99.90;;;;;;8192140;29;19911;-83
2023/05/10 14:29:41;;;;;;;;;;;13.90;99.90;;;;;;8199529;28;19910;-83
2023/05/10 14:33:47;;;;;;;;;;;14.10;99.90;;;;;;8186023;28;19910;-83
2023/05/10 14:37:59;;;;;;;;;;;14.00;99.90;;;;;;8186398;29;19918;-83
2023/05/10 14:42:06;;;;;;;;;;;14.10;99.90;;;;;;8198433;29;19911;-83
2023/05/10 14:46:15;;;;;;;;;;;14.10;99.90;;;;;;8190040;29;19910;-83
2023/05/10 14:50:18;;;;;;;;;;;14.20;99.90;;;;;;8193947;29;19918;-83
2023/05/10 14:54:24;;;;;;;;;;;14.60;99.90;;;;;;8198252;29;19910;-82
2023/05/10 14:58:38;;;;;;;;;;;14.20;99.90;;;;;;8170851;29;19914;-84
2023/05/10 15:02:48;;;;;;;;;;;13.90;99.90;;;;;;8180619;29;19934;-83
2023/05/10 15:07:06;;;;;;;;;;;13.80;99.90;;;;;;8193633;29;20394;-83
2023/05/10 15:11:07;;;;;;;;;;;13.50;99.90;;;;;;8196155;29;20344;-83
2023/05/10 15:15:10;;;;;;;;;;;13.30;99.90;;;;;;8192777;28;19934;-82
2023/05/10 15:19:11;;;;;;;;;;;13.40;99.90;;;;;;8175923;29;19915;-83
2023/05/10 15:23:18;;;;;;;;;;;13.60;99.90;;;;;;8196638;28;19915;-83
2023/05/10 15:27:25;;;;;;;;;;;13.80;99.90;;;;;;8184856;28;20361;-83
2023/05/10 15:31:35;;;;;;;;;;;13.60;99.90;;;;;;8198301;28;20268;-83
2023/05/10 15:35:41;;;;;;;;;;;13.50;99.90;;;;;;8195166;29;19961;-83
2023/05/10 15:39:42;;;;;;;;;;;13.50;99.90;;;;;;8194398;29;19927;-82
2023/05/10 15:43:49;;;;;;;;;;;13.60;99.90;;;;;;8190703;28;19926;-82
2023/05/10 15:47:50;;;;;;;;;;;13.70;99.90;;;;;;8192712;29;19915;-83
2023/05/10 15:51:56;;;;;;;;;;;13.80;99.90;;;;;;8199741;28;19922;-83
2023/05/10 15:55:57;;;;;;;;;;;14.00;99.90;;;;;;8198456;28;20022;-83
2023/05/10 15:59:57;;;;;;;;;;;14.10;99.90;;;;;;8205986;28;19914;-83
2023/05/10 16:04:07;;;;;;;;;;;13.90;99.90;;;;;;8190551;29;20557;-83
2023/05/10 16:08:13;;;;;;;;;;;13.90;99.90;;;;;;8198440;29;19919;-83
2023/05/10 16:16:53;;;;;;;;;;;13.80;99.90;;;;;;8131398;29;19918;-84
2023/05/10 16:20:58;;;;;;;;;;;13.90;99.90;;;;;;8199299;28;19926;-83
2023/05/10 16:25:01;;;;;;;;;;;13.90;99.90;;;;;;8191525;28;19922;-83
2023/05/10 16:29:14;;;;;;;;;;;13.80;99.90;;;;;;8197395;28;19924;-83
2023/05/10 16:33:15;;;;;;;;;;;13.70;99.90;;;;;;8184514;29;19948;-83
2023/05/10 16:37:21;;;;;;;;;;;13.50;99.90;;;;;;8192775;28;19950;-83
2023/05/10 16:41:25;;;;;;;;;;;13.30;99.90;;;;;;8193040;29;19920;-83
2023/05/10 16:45:29;;;;;;;;;;;13.30;99.90;;;;;;8170417;28;19925;-83
2023/05/10 16:49:37;;;;;;;;;;;13.40;99.90;;;;;;8176879;28;19921;-83
2023/05/10 16:53:37;;;;;;;;;;;13.30;99.90;;;;;;8197078;28;19926;-83
2023/05/10 16:57:41;;;;;;;;;;;13.20;99.90;;;;;;8190372;28;20502;-84
2023/05/10 17:01:58;;;;;;;;;;;13.00;99.90;;;;;;8198396;28;19922;-83
2023/05/10 17:06:04;;;;;;;;;;;13.20;99.90;;;;;;8194530;28;19968;-83
2023/05/10 17:10:10;;;;;;;;;;;13.00;99.90;;;;;;8190950;28;20282;-83
2023/05/10 17:14:20;;;;;;;;;;;13.00;99.90;;;;;;8199070;29;20447;-83
2023/05/10 17:18:26;;;;;;;;;;;12.80;99.90;;;;;;8185025;28;19941;-83
2023/05/10 17:22:27;;;;;;;;;;;12.50;99.90;;;;;;8205299;28;19924;-83
2023/05/10 17:26:56;;;;;;;;;;;12.50;99.90;;;;;;8177202;28;20504;-83
2023/05/10 17:31:08;;;;;;;;;;;12.30;99.90;;;;;;8177503;28;19914;-83
2023/05/10 17:35:09;;;;;;;;;;;12.30;99.90;;;;;;8175851;29;19923;-84
2023/05/10 17:39:45;;;;;;;;;;;12.20;99.90;;;;;;8193280;28;20332;-84
2023/05/10 17:43:53;;;;;;;;;;;12.10;99.90;;;;;;8199635;28;19921;-83
2023/05/10 17:47:59;;;;;;;;;;;11.90;99.90;;;;;;8209749;28;19915;-84
2023/05/10 17:52:38;;;;;;;;;;;11.70;99.90;;;;;;8205592;28;19957;-83
2023/05/10 17:57:02;;;;;;;;;;;11.70;99.90;;;;;;8202582;28;19933;-84
2023/05/10 18:01:06;;;;;;;;;;;11.70;99.90;;;;;;8171935;28;19964;-83
2023/05/10 18:05:10;;;;;;;;;;;11.60;99.90;;;;;;8194891;28;19921;-83
2023/05/10 18:09:15;;;;;;;;;;;11.50;99.90;;;;;;8194136;28;19918;-83
2023/05/10 18:13:21;;;;;;;;;;;11.40;99.90;;;;;;8205784;28;19914;-83
2023/05/10 18:17:25;;;;;;;;;;;11.10;99.90;;;;;;8205683;28;19965;-84
2023/05/10 18:21:38;;;;;;;;;;;10.90;99.90;;;;;;8177600;28;20022;-83
2023/05/10 18:25:39;;;;;;;;;;;10.60;99.90;;;;;;8197370;28;19919;-82
2023/05/10 18:30:01;;;;;;;;;;;10.40;99.90;;;;;;8204123;28;19922;-83
2023/05/10 18:34:06;;;;;;;;;;;10.40;99.90;;;;;;8198488;28;19938;-83
2023/05/10 18:38:10;;;;;;;;;;;10.10;99.90;;;;;;8195426;29;20315;-83
2023/05/10 18:42:11;;;;;;;;;;;9.80;99.90;;;;;;8179757;29;19914;-83
2023/05/10 18:46:21;;;;;;;;;;;9.80;99.90;;;;;;8198934;28;19914;-83
2023/05/10 18:50:22;;;;;;;;;;;10.00;99.90;;;;;;8197858;28;19962;-82
2023/05/10 18:54:28;;;;;;;;;;;10.00;99.90;;;;;;8181957;28;22023;-83
2023/05/10 18:58:39;;;;;;;;;;;10.00;99.90;;;;;;8196241;28;19923;-83
2023/05/10 19:02:40;;;;;;;;;;;9.90;99.90;;;;;;8201026;28;19914;-83
2023/05/10 19:06:44;;;;;;;;;;;9.80;99.90;;;;;;8197779;29;19914;-83
2023/05/10 19:10:50;;;;;;;;;;;9.70;99.90;;;;;;8193012;28;20384;-83
2023/05/10 19:14:53;;;;;;;;;;;9.80;99.90;;;;;;8194954;28;19994;-83
2023/05/10 19:19:14;;;;;;;;;;;9.70;99.90;;;;;;8186665;29;20025;-83
2023/05/10 19:23:31;;;;;;;;;;;9.80;99.90;;;;;;8204878;28;19924;-83
2023/05/10 19:27:36;;;;;;;;;;;9.70;99.90;;;;;;8196171;29;19910;-83
2023/05/10 19:31:38;;;;;;;;;;;9.60;99.90;;;;;;8185432;29;19914;-83
2023/05/10 19:35:38;;;;;;;;;;;9.70;99.90;;;;;;8182442;29;20277;-83
2023/05/10 19:39:42;;;;;;;;;;;9.60;99.90;;;;;;8203550;29;19915;-83
2023/05/10 19:43:42;;;;;;;;;;;9.50;99.90;;;;;;8197769;29;19915;-83
2023/05/10 19:47:43;;;;;;;;;;;9.60;99.90;;;;;;8199694;28;19914;-83
2023/05/10 19:51:46;;;;;;;;;;;9.70;99.90;;;;;;8191548;28;19922;-84
2023/05/10 19:55:56;;;;;;;;;;;9.70;99.90;;;;;;8193164;29;19915;-83
2023/05/10 19:59:57;;;;;;;;;;;9.60;99.90;;;;;;8207008;28;20368;-83
2023/05/10 20:03:57;;;;;;;;;;;9.80;99.90;;;;;;8183634;28;19969;-83
2023/05/10 20:07:58;;;;;;;;;;;9.70;99.90;;;;;;8205625;28;19922;-83
2023/05/10 20:12:02;;;;;;;;;;;9.80;99.90;;;;;;8184473;28;19981;-83
2023/05/10 20:16:06;;;;;;;;;;;9.90;99.90;;;;;;8201902;28;20277;-83
2023/05/10 20:20:14;;;;;;;;;;;9.80;99.90;;;;;;8202222;29;19950;-83
2023/05/10 20:24:20;;;;;;;;;;;9.50;99.90;;;;;;8201461;29;19911;-85
2023/05/10 20:28:22;;;;;;;;;;;9.60;99.90;;;;;;8209545;29;19910;-86
2023/05/10 20:32:28;;;;;;;;;;;10.10;99.90;;;;;;8206760;28;19958;-85
2023/05/10 20:36:29;;;;;;;;;;;9.90;99.90;;;;;;8212287;28;19919;-85
2023/05/10 20:40:32;;;;;;;;;;;9.50;99.90;;;;;;8204491;29;19918;-86
2023/05/10 20:44:33;;;;;;;;;;;9.90;99.90;;;;;;8211170;29;20077;-86
2023/05/10 20:48:36;;;;;;;;;;;9.90;99.90;;;;;;8206507;29;20215;-85
2023/05/10 20:52:46;;;;;;;;;;;9.60;99.90;;;;;;8212848;28;20403;-85
2023/05/10 20:56:50;;;;;;;;;;;9.50;99.90;;;;;;8198681;28;19919;-85
2023/05/10 21:00:51;;;;;;;;;;;9.60;99.90;;;;;;8209760;29;19911;-85
2023/05/10 21:04:51;;;;;;;;;;;9.50;99.90;;;;;;8216075;28;19911;-85
2023/05/10 21:08:55;;;;;;;;;;;9.50;99.90;;;;;;8209816;29;19911;-88
2023/05/10 21:12:58;;;;;;;;;;;9.40;99.90;;;;;;8208785;29;19915;-84
2023/05/10 21:17:05;;;;;;;;;;;9.40;99.90;;;;;;8195733;29;19918;-83
2023/05/10 21:21:05;;;;;;;;;;;9.40;99.90;;;;;;8193836;28;19910;-83
2023/05/10 21:25:06;;;;;;;;;;;9.40;99.90;;;;;;8192933;28;19921;-83
2023/05/10 21:29:06;;;;;;;;;;;9.40;99.90;;;;;;8194948;29;19910;-84
2023/05/10 21:33:10;;;;;;;;;;;9.40;99.90;;;;;;8192173;29;19915;-84
2023/05/10 21:37:13;;;;;;;;;;;9.20;99.90;;;;;;8194485;29;19919;-84
2023/05/10 21:41:17;;;;;;;;;;;9.50;99.90;;;;;;8194849;28;19914;-83
2023/05/10 21:45:26;;;;;;;;;;;9.80;99.90;;;;;;8203055;28;19941;-83
2023/05/10 21:49:26;;;;;;;;;;;9.90;99.90;;;;;;8195552;28;19914;-83
2023/05/10 21:53:31;;;;;;;;;;;9.80;99.90;;;;;;8202069;28;19926;-84
2023/05/10 21:57:35;;;;;;;;;;;9.60;99.90;;;;;;8197343;29;19921;-83
2023/05/10 22:01:39;;;;;;;;;;;9.50;99.90;;;;;;8190065;29;19910;-84
2023/05/10 22:05:39;;;;;;;;;;;9.30;99.90;;;;;;8196233;28;19962;-82
2023/05/10 22:09:40;;;;;;;;;;;9.30;99.90;;;;;;8197844;29;20530;-83
2023/05/10 22:13:44;;;;;;;;;;;9.30;99.90;;;;;;8201909;29;19958;-83
2023/05/10 22:17:44;;;;;;;;;;;9.30;99.90;;;;;;8201471;29;19920;-83
2023/05/10 22:21:48;;;;;;;;;;;9.40;99.90;;;;;;8189908;29;19911;-83
2023/05/10 22:26:03;;;;;;;;;;;9.50;99.90;;;;;;8186485;28;20720;-83
2023/05/10 22:30:05;;;;;;;;;;;9.50;99.90;;;;;;8194082;29;19917;-83
2023/05/10 22:34:08;;;;;;;;;;;9.50;99.90;;;;;;8191277;28;20031;-83
2023/05/10 22:38:29;;;;;;;;;;;9.50;99.90;;;;;;8201658;28;19926;-83
2023/05/10 22:42:33;;;;;;;;;;;9.60;99.90;;;;;;8185439;29;19910;-83
2023/05/10 22:46:39;;;;;;;;;;;9.50;99.90;;;;;;8187910;29;19925;-84
2023/05/10 22:50:43;;;;;;;;;;;9.50;99.90;;;;;;8189899;28;19910;-83
2023/05/10 22:54:49;;;;;;;;;;;9.50;99.90;;;;;;8197203;29;19918;-83
2023/05/10 22:58:50;;;;;;;;;;;9.50;99.90;;;;;;8194859;29;19926;-83
2023/05/10 23:02:53;;;;;;;;;;;9.60;99.90;;;;;;8195262;29;19911;-83
2023/05/10 23:06:58;;;;;;;;;;;9.50;99.90;;;;;;8178533;29;20509;-83
2023/05/10 23:11:04;;;;;;;;;;;9.50;99.90;;;;;;8188249;29;19946;-83
2023/05/10 23:15:05;;;;;;;;;;;9.50;99.90;;;;;;8190400;29;20002;-83
2023/05/10 23:19:11;;;;;;;;;;;9.60;99.90;;;;;;8197443;28;19914;-83
2023/05/10 23:23:17;;;;;;;;;;;9.50;99.90;;;;;;8189590;29;20415;-83
2023/05/10 23:27:21;;;;;;;;;;;9.50;99.90;;;;;;8187310;28;20451;-83
2023/05/10 23:31:22;;;;;;;;;;;9.60;99.90;;;;;;8197763;28;19915;-83
2023/05/10 23:39:46;;;;;;;;;;;9.60;99.90;;;;;;8195655;29;19923;-84
2023/05/10 23:43:50;;;;;;;;;;;9.60;99.90;;;;;;8193050;29;19926;-84
2023/05/10 23:47:59;;;;;;;;;;;9.80;99.90;;;;;;8201870;29;19922;-83
2023/05/10 23:52:09;;;;;;;;;;;9.70;99.90;;;;;;8191746;29;20606;-84
